LNG Aquarius — V7BW6 — position and weather

sailwx.info

Track history (hours):
 
Tides and Currents Weather Stations Pressure Air Temp Water Temp Dewpoint Dewpoint Depression Visibility Wind Speed Wind Dir Waves Ship Positions

LNG Aquarius

Last reported at 2017-Nov-20 00:30 UTC. Time now 2017-Dec-13 18:53 UTC.
Position N 37°11' W 123°10'.
Warning: this ship's position is 23 days out of date.

Type: Tanker. MMSI: 538001385.

Date/timePositionNaut miles runAvg speedWind from/ knotsBaromVisibWave heightAir tempDewpointWater temp
2017-Nov-20 00:30N 37°11' W 123°10'714.1
2017-Nov-20 00:00N 37°17' W 123°14'714.0
2017-Nov-19 23:30N 37°24' W 123°18'713.5
2017-Nov-19 23:00N 37°30' W 123°21'713.7
2017-Nov-19 22:29N 37°36' W 123°25'713.8
2017-Nov-19 21:59N 37°43' W 123°28'613.7
2017-Nov-19 21:30N 37°49' W 123°32'713.6
2017-Nov-19 21:00N 37°55' W 123°36'713.6
2017-Nov-19 20:30N 38°01' W 123°39'713.8
2017-Nov-19 20:00N 38°07' W 123°43'713.6
2017-Nov-19 19:30N 38°13' W 123°47'713.6
2017-Nov-19 19:01N 38°20' W 123°50'713.5
2017-Nov-19 18:30N 38°26' W 123°54'1213.5
2017-Nov-19 17:36N 38°37' W 124°00'113.3
2017-Nov-19 17:29N 38°38' W 124°01'1213.5
2017-Nov-19 16:38N 38°49' W 124°07'713.5
2017-Nov-19 16:08N 38°55' W 124°11'213.6
2017-Nov-19 15:58N 38°57' W 124°12'38013.2
2017-Nov-18 11:15N 45°14' W 125°13'313.1
2017-Nov-18 10:59N 45°18' W 125°13'713.2
2017-Nov-18 10:28N 45°25' W 125°13'612.9
2017-Nov-18 10:00N 45°31' W 125°14'713.3
2017-Nov-18 09:30N 45°37' W 125°14'713.6
2017-Nov-18 09:00N 45°44' W 125°14'713.6
2017-Nov-18 08:30N 45°51' W 125°14'713.5
2017-Nov-18 08:00N 45°57' W 125°15'713.2
2017-Nov-18 07:31N 46°04' W 125°15'713.2
2017-Nov-18 07:00N 46°11' W 125°15'713.0
2017-Nov-18 06:30N 46°17' W 125°15'713.1
2017-Nov-18 05:59N 46°24' W 125°15'613.2
2017-Nov-18 05:30N 46°30' W 125°15'713.3
2017-Nov-18 05:00N 46°37' W 125°15'713.0
2017-Nov-18 04:30N 46°43' W 125°16'9413.4
2017-Nov-17 21:30N 48°18' W 125°10'612.7
2017-Nov-17 20:59N 48°24' W 125°07'612.7
2017-Nov-17 20:29N 48°29' W 125°03'510.6
2017-Nov-17 19:59N 48°31' W 124°55'511.0
2017-Nov-17 19:30N 48°31' W 124°47'611.4
2017-Nov-17 19:00N 48°29' W 124°39'611.7
2017-Nov-17 18:30N 48°27' W 124°31'611.5
2017-Nov-17 18:00N 48°25' W 124°23'611.9
2017-Nov-17 17:30N 48°23' W 124°14'612.5
2017-Nov-17 17:00N 48°20' W 124°06'713.2
2017-Nov-17 16:30N 48°18' W 123°56'612.4
2017-Nov-17 16:00N 48°17' W 123°47'611.8
2017-Nov-17 15:30N 48°16' W 123°38'611.7
2017-Nov-17 14:57N 48°17' W 123°29'612.3
2017-Nov-17 14:30N 48°22' W 123°25'3 5.9
2017-Nov-17 14:00N 48°23' W 123°21'713.0
2017-Nov-17 13:30N 48°25' W 123°12'714.7
2017-Nov-17 13:00N 48°33' W 123°13'612.8
2017-Nov-17 12:30N 48°39' W 123°15'510.0
2017-Nov-17 12:00N 48°43' W 123°11'611.8
2017-Nov-17 11:29N 48°46' W 123°03'5 9.9
2017-Nov-17 10:59N 48°51' W 123°04'612.9
2017-Nov-17 10:30N 48°56' W 123°11'713.3
2017-Nov-17 10:00N 49°00' W 123°18'612.8
2017-Nov-17 09:30N 49°05' W 123°24'612.9
2017-Nov-17 09:00N 49°12' W 123°23'713.9
2017-Nov-17 08:30N 49°18' W 123°19'612.2
2017-Nov-17 08:00N 49°19' W 123°09'4 7.3
2017-Nov-17 07:30N 49°18' W 123°04'3 6.4
2017-Nov-17 06:59N 49°18' W 122°59'3 6.0
2017-Nov-17 06:30N 49°17' W 122°55'2 3.5
2017-Nov-17 06:00N 49°17' W 122°52'0 0.1
2017-Nov-17 05:24N 49°17' W 122°52'0 0.0
2017-Nov-17 05:00N 49°17' W 122°52'0 0.0
2017-Nov-17 03:36N 49°17' W 122°52'0 0.0
2017-Nov-17 03:30N 49°17' W 122°52'0 0.0
2017-Nov-17 02:42N 49°17' W 122°52'0 0.0
2017-Nov-17 02:30N 49°17' W 122°52'0 0.0
2017-Nov-17 01:48N 49°17' W 122°52'0 0.0
2017-Nov-17 01:18N 49°17' W 122°52'0 0.0
2017-Nov-17 00:54N 49°17' W 122°52'0 0.0
2017-Nov-17 00:30N 49°17' W 122°52'0 0.0
2017-Nov-17 00:00N 49°17' W 122°52'0 0.0
2017-Nov-16 23:12N 49°17' W 122°52'0 0.0
2017-Nov-16 22:54N 49°17' W 122°52'0 0.0
2017-Nov-16 22:18N 49°17' W 122°52'0 0.0
2017-Nov-16 22:00N 49°17' W 122°52'0 0.0
2017-Nov-16 21:30N 49°17' W 122°52'0 0.0
2017-Nov-16 20:24N 49°17' W 122°52'0 0.0
2017-Nov-16 18:12N 49°17' W 122°52'0 0.1
2017-Nov-16 17:48N 49°17' W 122°52'0 0.0
2017-Nov-16 17:18N 49°17' W 122°52'0 0.0
2017-Nov-16 16:54N 49°17' W 122°52'0 0.0
2017-Nov-16 16:30N 49°17' W 122°52'0 0.0
2017-Nov-16 15:42N 49°17' W 122°52'0 0.0
2017-Nov-16 15:18N 49°17' W 122°52'0 0.0
2017-Nov-16 14:54N 49°17' W 122°52'0 0.0
2017-Nov-16 14:24N 49°17' W 122°52'0 0.0
2017-Nov-16 13:54N 49°17' W 122°52'0 0.0
2017-Nov-16 13:24N 49°17' W 122°52'0 0.0
2017-Nov-16 12:54N 49°17' W 122°52'0 0.0
2017-Nov-16 12:18N 49°17' W 122°52'0 0.0
2017-Nov-16 12:00N 49°17' W 122°52'0 0.0
2017-Nov-16 11:30N 49°17' W 122°52'0 0.0
2017-Nov-16 11:00N 49°17' W 122°52'0 0.0
2017-Nov-16 09:06N 49°17' W 122°52'0 0.0
2017-Nov-16 08:54N 49°17' W 122°52'0 0.0
2017-Nov-16 08:24N 49°17' W 122°52'0 0.0
2017-Nov-16 07:00N 49°17' W 122°52'0 0.0
2017-Nov-16 06:30N 49°17' W 122°52'0 0.0
2017-Nov-16 05:48N 49°17' W 122°52'0 0.0
2017-Nov-16 05:24N 49°17' W 122°52'0 0.0
2017-Nov-16 04:35N 49°17' W 122°52'0 0.1
2017-Nov-16 04:30N 49°17' W 122°52'0 0.0
2017-Nov-16 04:00N 49°17' W 122°52'0 0.0
2017-Nov-16 03:24N 49°17' W 122°52'0 0.0
2017-Nov-16 02:53N 49°17' W 122°52'0 0.0
2017-Nov-16 01:42N 49°17' W 122°52'0 0.0
2017-Nov-16 01:24N 49°17' W 122°52'0 0.0
2017-Nov-16 00:41N 49°17' W 122°52'0 0.0
2017-Nov-16 00:24N 49°17' W 122°52'0 0.0
2017-Nov-16 00:00N 49°17' W 122°52'0 0.0
2017-Nov-15 21:36N 49°17' W 122°52'0 0.1
2017-Nov-15 21:30N 49°17' W 122°52'0 0.0
2017-Nov-15 20:59N 49°17' W 122°52'0 0.0
2017-Nov-15 20:30N 49°17' W 122°52'0 0.0
2017-Nov-15 19:54N 49°17' W 122°52'0 0.0
2017-Nov-15 19:24N 49°17' W 122°52'0 0.0
2017-Nov-15 18:54N 49°17' W 122°52'0 0.0
2017-Nov-15 18:18N 49°17' W 122°52'0 0.0
2017-Nov-15 17:48N 49°17' W 122°52'0 0.0
2017-Nov-15 17:24N 49°17' W 122°52'0 0.0
2017-Nov-15 16:54N 49°17' W 122°52'0 0.0
2017-Nov-15 16:23N 49°17' W 122°52'0 0.0
2017-Nov-15 16:00N 49°17' W 122°52'0 0.0
2017-Nov-15 15:29N 49°17' W 122°52'0 0.0
2017-Nov-15 14:59N 49°17' W 122°52'0 0.0
2017-Nov-15 14:29N 49°17' W 122°52'0 0.0
2017-Nov-15 13:53N 49°17' W 122°52'0 0.0
2017-Nov-15 13:29N 49°17' W 122°52'0 0.7
2017-Nov-15 13:00N 49°18' W 122°52'2 3.9
2017-Nov-15 12:29N 49°18' W 122°55'3 6.2
2017-Nov-15 12:00N 49°18' W 122°60'3 5.7
2017-Nov-15 11:30N 49°18' W 123°04'1 1.8
2017-Nov-15 10:59N 49°18' W 123°06'0 0.1
2017-Nov-15 10:29N 49°18' W 123°06'0 0.0
2017-Nov-15 09:59N 49°18' W 123°06'0 0.1
2017-Nov-15 09:29N 49°18' W 123°06'0 0.0
2017-Nov-15 08:59N 49°18' W 123°06'0 0.0
2017-Nov-15 08:29N 49°18' W 123°06'0 0.1
2017-Nov-15 07:59N 49°18' W 123°06'0 0.0
2017-Nov-15 07:29N 49°18' W 123°06'0 0.0
2017-Nov-15 06:56N 49°18' W 123°06'0 0.0
2017-Nov-15 06:29N 49°18' W 123°06'0 0.1
2017-Nov-15 05:59N 49°18' W 123°06'0 0.0
2017-Nov-15 05:29N 49°18' W 123°06'0 0.0
2017-Nov-15 04:59N 49°18' W 123°06'0 0.0
2017-Nov-15 04:29N 49°18' W 123°06'0 0.0
2017-Nov-15 03:59N 49°18' W 123°06'0 0.0
2017-Nov-15 03:29N 49°18' W 123°06'0 0.0
2017-Nov-15 02:59N 49°18' W 123°06'0 0.0
2017-Nov-15 02:29N 49°18' W 123°06'0 0.0
2017-Nov-15 01:59N 49°18' W 123°06'0 0.0
2017-Nov-15 01:29N 49°18' W 123°06'0 0.0
2017-Nov-15 00:59N 49°18' W 123°06'0 0.1
2017-Nov-15 00:29N 49°18' W 123°06'0 0.1
2017-Nov-14 23:59N 49°18' W 123°06'0 0.1
2017-Nov-14 23:29N 49°18' W 123°06'0 0.1
2017-Nov-14 22:59N 49°18' W 123°06'0 0.0
2017-Nov-14 22:29N 49°18' W 123°06'0 0.0
2017-Nov-14 21:59N 49°18' W 123°06'0 0.1
2017-Nov-14 21:29N 49°18' W 123°06'0 0.0
2017-Nov-14 20:56N 49°18' W 123°06'0 0.0
2017-Nov-14 20:29N 49°18' W 123°06'0 0.0
2017-Nov-14 19:59N 49°18' W 123°06'0 0.0
2017-Nov-14 19:29N 49°18' W 123°06'0 0.0
2017-Nov-14 18:59N 49°18' W 123°06'0 0.0
2017-Nov-14 18:29N 49°18' W 123°06'0 0.0
2017-Nov-14 17:59N 49°18' W 123°06'0 0.1
2017-Nov-14 17:29N 49°18' W 123°06'0 0.0
2017-Nov-14 16:59N 49°18' W 123°06'0 0.0
2017-Nov-14 16:29N 49°18' W 123°06'0 0.1
2017-Nov-14 15:59N 49°18' W 123°06'0 0.0
2017-Nov-14 15:29N 49°18' W 123°06'0 0.0
2017-Nov-14 14:59N 49°18' W 123°06'0 0.0
2017-Nov-14 14:29N 49°18' W 123°06'0 0.0
2017-Nov-14 13:56N 49°18' W 123°06'0 0.0
2017-Nov-14 13:29N 49°18' W 123°06'0 0.0
2017-Nov-14 12:59N 49°18' W 123°06'0 0.0
2017-Nov-14 12:29N 49°18' W 123°06'0 0.0
2017-Nov-14 11:59N 49°18' W 123°06'0 0.1
2017-Nov-14 11:29N 49°18' W 123°06'0 0.0
2017-Nov-14 10:59N 49°18' W 123°06'0 0.1
2017-Nov-14 10:26N 49°18' W 123°05'0 0.1
2017-Nov-14 09:59N 49°18' W 123°05'0 0.0
2017-Nov-14 09:29N 49°18' W 123°05'0 0.1
2017-Nov-14 08:59N 49°18' W 123°05'0 0.3
2017-Nov-14 08:29N 49°18' W 123°06'0 0.0
2017-Nov-14 07:59N 49°18' W 123°06'0 0.0
2017-Nov-14 07:29N 49°18' W 123°06'0 0.0
2017-Nov-14 06:59N 49°18' W 123°06'0 0.0
2017-Nov-14 06:29N 49°18' W 123°06'0 0.0
2017-Nov-14 05:59N 49°18' W 123°06'0 0.0
2017-Nov-14 05:29N 49°18' W 123°06'0 0.0
2017-Nov-14 04:59N 49°18' W 123°06'0 0.0
2017-Nov-14 04:29N 49°18' W 123°06'0 0.1
2017-Nov-14 03:59N 49°18' W 123°06'0 0.0
2017-Nov-14 03:20N 49°18' W 123°06'0 0.1
2017-Nov-14 02:59N 49°18' W 123°06'0 0.0
2017-Nov-14 02:29N 49°18' W 123°06'0 0.0
2017-Nov-14 01:59N 49°18' W 123°06'0 0.0
2017-Nov-14 01:29N 49°18' W 123°06'0 0.1
2017-Nov-14 00:59N 49°18' W 123°06'0 0.2
2017-Nov-14 00:29N 49°18' W 123°06'0 0.0
2017-Nov-13 23:59N 49°18' W 123°06'0 0.0
2017-Nov-13 23:29N 49°18' W 123°06'0 0.1
2017-Nov-13 22:59N 49°18' W 123°06'0 0.0
2017-Nov-13 22:29N 49°18' W 123°06'0 0.1
2017-Nov-13 21:56N 49°18' W 123°06'164 8.2
2017-Nov-13 01:57N 46°58' W 125°15'713.5
2017-Nov-13 01:25N 46°51' W 125°15'1613.4
2017-Nov-13 00:14N 46°36' W 125°18'314.0
2017-Nov-13 00:00N 46°32' W 125°18'2313.9
2017-Nov-12 22:20N 46°09' W 125°21'60912.9
2017-Nov-10 23:03N 36°10' W 122°55'012.0
2017-Nov-10 23:00N 36°10' W 122°55'3212.3
2017-Nov-10 20:25N 35°43' W 122°34'6012.5
2017-Nov-10 15:38N 34°53' W 121°54'212.8
2017-Nov-10 15:30N 34°52' W 121°53'612.7
2017-Nov-10 15:00N 34°46' W 121°49'612.7
2017-Nov-10 14:30N 34°41' W 121°45'611.9
2017-Nov-10 14:00N 34°37' W 121°40'612.2
2017-Nov-10 13:30N 34°35' W 121°32'612.7
2017-Nov-10 13:00N 34°34' W 121°25'612.8
2017-Nov-10 12:30N 34°32' W 121°18'611.6
2017-Nov-10 12:00N 34°30' W 121°11'612.5
2017-Nov-10 11:30N 34°29' W 121°03'612.3
2017-Nov-10 11:00N 34°27' W 120°56'612.0
2017-Nov-10 10:30N 34°26' W 120°49'611.6
2017-Nov-10 09:59N 34°24' W 120°42'612.3
2017-Nov-10 09:30N 34°22' W 120°35'612.2
2017-Nov-10 09:00N 34°21' W 120°28'712.5
2017-Nov-10 08:27N 34°19' W 120°20'613.3
2017-Nov-10 08:00N 34°17' W 120°13'813.1
2017-Nov-10 07:24N 34°15' W 120°04'513.0
2017-Nov-10 07:00N 34°14' W 119°58'713.0
2017-Nov-10 06:29N 34°12' W 119°50'612.9
2017-Nov-10 05:59N 34°10' W 119°43'713.1
2017-Nov-10 05:29N 34°09' W 119°35'613.0
2017-Nov-10 05:00N 34°07' W 119°27'713.0
2017-Nov-10 04:25N 34°05' W 119°19'512.4
2017-Nov-10 04:00N 34°03' W 119°13'613.1
2017-Nov-10 03:30N 33°60' W 119°06'713.4
2017-Nov-10 03:00N 33°57' W 118°59'713.2
2017-Nov-10 02:30N 33°53' W 118°52'612.8
2017-Nov-10 02:00N 33°50' W 118°45'510.3
2017-Nov-10 01:30N 33°48' W 118°40'5 7.7
2017-Nov-10 00:53N 33°45' W 118°35'  
Track history (hours):
 
Tides and Currents Weather Stations Pressure Air Temp Water Temp Dewpoint Dewpoint Depression Visibility Wind Speed Wind Dir Waves Ship Positions

LNG Aquarius

Last reported at 2017-Nov-20 00:30 UTC. Time now 2017-Dec-13 18:53 UTC.
Position N 37°11' W 123°10'.
Warning: this ship's position is 23 days out of date.

Type: Tanker. MMSI: 538001385.

Date/timePositionNaut miles runAvg speedWind from/ knotsBaromVisibWave heightAir tempDewpointWater temp
2017-Nov-20 00:30N 37°11' W 123°10'714.1
2017-Nov-20 00:00N 37°17' W 123°14'714.0
2017-Nov-19 23:30N 37°24' W 123°18'713.5
2017-Nov-19 23:00N 37°30' W 123°21'713.7
2017-Nov-19 22:29N 37°36' W 123°25'713.8
2017-Nov-19 21:59N 37°43' W 123°28'613.7
2017-Nov-19 21:30N 37°49' W 123°32'713.6
2017-Nov-19 21:00N 37°55' W 123°36'713.6
2017-Nov-19 20:30N 38°01' W 123°39'713.8
2017-Nov-19 20:00N 38°07' W 123°43'713.6
2017-Nov-19 19:30N 38°13' W 123°47'713.6
2017-Nov-19 19:01N 38°20' W 123°50'713.5
2017-Nov-19 18:30N 38°26' W 123°54'1213.5
2017-Nov-19 17:36N 38°37' W 124°00'113.3
2017-Nov-19 17:29N 38°38' W 124°01'1213.5
2017-Nov-19 16:38N 38°49' W 124°07'713.5
2017-Nov-19 16:08N 38°55' W 124°11'213.6
2017-Nov-19 15:58N 38°57' W 124°12'38013.2
2017-Nov-18 11:15N 45°14' W 125°13'313.1
2017-Nov-18 10:59N 45°18' W 125°13'713.2
2017-Nov-18 10:28N 45°25' W 125°13'612.9
2017-Nov-18 10:00N 45°31' W 125°14'713.3
2017-Nov-18 09:30N 45°37' W 125°14'713.6
2017-Nov-18 09:00N 45°44' W 125°14'713.6
2017-Nov-18 08:30N 45°51' W 125°14'713.5
2017-Nov-18 08:00N 45°57' W 125°15'713.2
2017-Nov-18 07:31N 46°04' W 125°15'713.2
2017-Nov-18 07:00N 46°11' W 125°15'713.0
2017-Nov-18 06:30N 46°17' W 125°15'713.1
2017-Nov-18 05:59N 46°24' W 125°15'613.2
2017-Nov-18 05:30N 46°30' W 125°15'713.3
2017-Nov-18 05:00N 46°37' W 125°15'713.0
2017-Nov-18 04:30N 46°43' W 125°16'9413.4
2017-Nov-17 21:30N 48°18' W 125°10'612.7
2017-Nov-17 20:59N 48°24' W 125°07'612.7
2017-Nov-17 20:29N 48°29' W 125°03'510.6
2017-Nov-17 19:59N 48°31' W 124°55'511.0
2017-Nov-17 19:30N 48°31' W 124°47'611.4
2017-Nov-17 19:00N 48°29' W 124°39'611.7
2017-Nov-17 18:30N 48°27' W 124°31'611.5
2017-Nov-17 18:00N 48°25' W 124°23'611.9
2017-Nov-17 17:30N 48°23' W 124°14'612.5
2017-Nov-17 17:00N 48°20' W 124°06'713.2
2017-Nov-17 16:30N 48°18' W 123°56'612.4
2017-Nov-17 16:00N 48°17' W 123°47'611.8
2017-Nov-17 15:30N 48°16' W 123°38'611.7
2017-Nov-17 14:57N 48°17' W 123°29'612.3
2017-Nov-17 14:30N 48°22' W 123°25'3 5.9
2017-Nov-17 14:00N 48°23' W 123°21'713.0
2017-Nov-17 13:30N 48°25' W 123°12'714.7
2017-Nov-17 13:00N 48°33' W 123°13'612.8
2017-Nov-17 12:30N 48°39' W 123°15'510.0
2017-Nov-17 12:00N 48°43' W 123°11'611.8
2017-Nov-17 11:29N 48°46' W 123°03'5 9.9
2017-Nov-17 10:59N 48°51' W 123°04'612.9
2017-Nov-17 10:30N 48°56' W 123°11'713.3
2017-Nov-17 10:00N 49°00' W 123°18'612.8
2017-Nov-17 09:30N 49°05' W 123°24'612.9
2017-Nov-17 09:00N 49°12' W 123°23'713.9
2017-Nov-17 08:30N 49°18' W 123°19'612.2
2017-Nov-17 08:00N 49°19' W 123°09'4 7.3
2017-Nov-17 07:30N 49°18' W 123°04'3 6.4
2017-Nov-17 06:59N 49°18' W 122°59'3 6.0
2017-Nov-17 06:30N 49°17' W 122°55'2 3.5
2017-Nov-17 06:00N 49°17' W 122°52'0 0.1
2017-Nov-17 05:24N 49°17' W 122°52'0 0.0
2017-Nov-17 05:00N 49°17' W 122°52'0 0.0
2017-Nov-17 03:36N 49°17' W 122°52'0 0.0
2017-Nov-17 03:30N 49°17' W 122°52'0 0.0
2017-Nov-17 02:42N 49°17' W 122°52'0 0.0
2017-Nov-17 02:30N 49°17' W 122°52'0 0.0
2017-Nov-17 01:48N 49°17' W 122°52'0 0.0
2017-Nov-17 01:18N 49°17' W 122°52'0 0.0
2017-Nov-17 00:54N 49°17' W 122°52'0 0.0
2017-Nov-17 00:30N 49°17' W 122°52'0 0.0
2017-Nov-17 00:00N 49°17' W 122°52'0 0.0
2017-Nov-16 23:12N 49°17' W 122°52'0 0.0
2017-Nov-16 22:54N 49°17' W 122°52'0 0.0
2017-Nov-16 22:18N 49°17' W 122°52'0 0.0
2017-Nov-16 22:00N 49°17' W 122°52'0 0.0
2017-Nov-16 21:30N 49°17' W 122°52'0 0.0
2017-Nov-16 20:24N 49°17' W 122°52'0 0.0
2017-Nov-16 18:12N 49°17' W 122°52'0 0.1
2017-Nov-16 17:48N 49°17' W 122°52'0 0.0
2017-Nov-16 17:18N 49°17' W 122°52'0 0.0
2017-Nov-16 16:54N 49°17' W 122°52'0 0.0
2017-Nov-16 16:30N 49°17' W 122°52'0 0.0
2017-Nov-16 15:42N 49°17' W 122°52'0 0.0
2017-Nov-16 15:18N 49°17' W 122°52'0 0.0
2017-Nov-16 14:54N 49°17' W 122°52'0 0.0
2017-Nov-16 14:24N 49°17' W 122°52'0 0.0
2017-Nov-16 13:54N 49°17' W 122°52'0 0.0
2017-Nov-16 13:24N 49°17' W 122°52'0 0.0
2017-Nov-16 12:54N 49°17' W 122°52'0 0.0
2017-Nov-16 12:18N 49°17' W 122°52'0 0.0
2017-Nov-16 12:00N 49°17' W 122°52'0 0.0
2017-Nov-16 11:30N 49°17' W 122°52'0 0.0
2017-Nov-16 11:00N 49°17' W 122°52'0 0.0
2017-Nov-16 09:06N 49°17' W 122°52'0 0.0
2017-Nov-16 08:54N 49°17' W 122°52'0 0.0
2017-Nov-16 08:24N 49°17' W 122°52'0 0.0
2017-Nov-16 07:00N 49°17' W 122°52'0 0.0
2017-Nov-16 06:30N 49°17' W 122°52'0 0.0
2017-Nov-16 05:48N 49°17' W 122°52'0 0.0
2017-Nov-16 05:24N 49°17' W 122°52'0 0.0
2017-Nov-16 04:35N 49°17' W 122°52'0 0.1
2017-Nov-16 04:30N 49°17' W 122°52'0 0.0
2017-Nov-16 04:00N 49°17' W 122°52'0 0.0
2017-Nov-16 03:24N 49°17' W 122°52'0 0.0
2017-Nov-16 02:53N 49°17' W 122°52'0 0.0
2017-Nov-16 01:42N 49°17' W 122°52'0 0.0
2017-Nov-16 01:24N 49°17' W 122°52'0 0.0
2017-Nov-16 00:41N 49°17' W 122°52'0 0.0
2017-Nov-16 00:24N 49°17' W 122°52'0 0.0
2017-Nov-16 00:00N 49°17' W 122°52'0 0.0
2017-Nov-15 21:36N 49°17' W 122°52'0 0.1
2017-Nov-15 21:30N 49°17' W 122°52'0 0.0
2017-Nov-15 20:59N 49°17' W 122°52'0 0.0
2017-Nov-15 20:30N 49°17' W 122°52'0 0.0
2017-Nov-15 19:54N 49°17' W 122°52'0 0.0
2017-Nov-15 19:24N 49°17' W 122°52'0 0.0
2017-Nov-15 18:54N 49°17' W 122°52'0 0.0
2017-Nov-15 18:18N 49°17' W 122°52'0 0.0
2017-Nov-15 17:48N 49°17' W 122°52'0 0.0
2017-Nov-15 17:24N 49°17' W 122°52'0 0.0
2017-Nov-15 16:54N 49°17' W 122°52'0 0.0
2017-Nov-15 16:23N 49°17' W 122°52'0 0.0
2017-Nov-15 16:00N 49°17' W 122°52'0 0.0
2017-Nov-15 15:29N 49°17' W 122°52'0 0.0
2017-Nov-15 14:59N 49°17' W 122°52'0 0.0
2017-Nov-15 14:29N 49°17' W 122°52'0 0.0
2017-Nov-15 13:53N 49°17' W 122°52'0 0.0
2017-Nov-15 13:29N 49°17' W 122°52'0 0.7
2017-Nov-15 13:00N 49°18' W 122°52'2 3.9
2017-Nov-15 12:29N 49°18' W 122°55'3 6.2
2017-Nov-15 12:00N 49°18' W 122°60'3 5.7
2017-Nov-15 11:30N 49°18' W 123°04'1 1.8
2017-Nov-15 10:59N 49°18' W 123°06'0 0.1
2017-Nov-15 10:29N 49°18' W 123°06'0 0.0
2017-Nov-15 09:59N 49°18' W 123°06'0 0.1
2017-Nov-15 09:29N 49°18' W 123°06'0 0.0
2017-Nov-15 08:59N 49°18' W 123°06'0 0.0
2017-Nov-15 08:29N 49°18' W 123°06'0 0.1
2017-Nov-15 07:59N 49°18' W 123°06'0 0.0
2017-Nov-15 07:29N 49°18' W 123°06'0 0.0
2017-Nov-15 06:56N 49°18' W 123°06'0 0.0
2017-Nov-15 06:29N 49°18' W 123°06'0 0.1
2017-Nov-15 05:59N 49°18' W 123°06'0 0.0
2017-Nov-15 05:29N 49°18' W 123°06'0 0.0
2017-Nov-15 04:59N 49°18' W 123°06'0 0.0
2017-Nov-15 04:29N 49°18' W 123°06'0 0.0
2017-Nov-15 03:59N 49°18' W 123°06'0 0.0
2017-Nov-15 03:29N 49°18' W 123°06'0 0.0
2017-Nov-15 02:59N 49°18' W 123°06'0 0.0
2017-Nov-15 02:29N 49°18' W 123°06'0 0.0
2017-Nov-15 01:59N 49°18' W 123°06'0 0.0
2017-Nov-15 01:29N 49°18' W 123°06'0 0.0
2017-Nov-15 00:59N 49°18' W 123°06'0 0.1
2017-Nov-15 00:29N 49°18' W 123°06'0 0.1
2017-Nov-14 23:59N 49°18' W 123°06'0 0.1
2017-Nov-14 23:29N 49°18' W 123°06'0 0.1
2017-Nov-14 22:59N 49°18' W 123°06'0 0.0
2017-Nov-14 22:29N 49°18' W 123°06'0 0.0
2017-Nov-14 21:59N 49°18' W 123°06'0 0.1
2017-Nov-14 21:29N 49°18' W 123°06'0 0.0
2017-Nov-14 20:56N 49°18' W 123°06'0 0.0
2017-Nov-14 20:29N 49°18' W 123°06'0 0.0
2017-Nov-14 19:59N 49°18' W 123°06'0 0.0
2017-Nov-14 19:29N 49°18' W 123°06'0 0.0
2017-Nov-14 18:59N 49°18' W 123°06'0 0.0
2017-Nov-14 18:29N 49°18' W 123°06'0 0.0
2017-Nov-14 17:59N 49°18' W 123°06'0 0.1
2017-Nov-14 17:29N 49°18' W 123°06'0 0.0
2017-Nov-14 16:59N 49°18' W 123°06'0 0.0
2017-Nov-14 16:29N 49°18' W 123°06'0 0.1
2017-Nov-14 15:59N 49°18' W 123°06'0 0.0
2017-Nov-14 15:29N 49°18' W 123°06'0 0.0
2017-Nov-14 14:59N 49°18' W 123°06'0 0.0
2017-Nov-14 14:29N 49°18' W 123°06'0 0.0
2017-Nov-14 13:56N 49°18' W 123°06'0 0.0
2017-Nov-14 13:29N 49°18' W 123°06'0 0.0
2017-Nov-14 12:59N 49°18' W 123°06'0 0.0
2017-Nov-14 12:29N 49°18' W 123°06'0 0.0
2017-Nov-14 11:59N 49°18' W 123°06'0 0.1
2017-Nov-14 11:29N 49°18' W 123°06'0 0.0
2017-Nov-14 10:59N 49°18' W 123°06'0 0.1
2017-Nov-14 10:26N 49°18' W 123°05'0 0.1
2017-Nov-14 09:59N 49°18' W 123°05'0 0.0
2017-Nov-14 09:29N 49°18' W 123°05'0 0.1
2017-Nov-14 08:59N 49°18' W 123°05'0 0.3
2017-Nov-14 08:29N 49°18' W 123°06'0 0.0
2017-Nov-14 07:59N 49°18' W 123°06'0 0.0
2017-Nov-14 07:29N 49°18' W 123°06'0 0.0
2017-Nov-14 06:59N 49°18' W 123°06'0 0.0
2017-Nov-14 06:29N 49°18' W 123°06'0 0.0
2017-Nov-14 05:59N 49°18' W 123°06'0 0.0
2017-Nov-14 05:29N 49°18' W 123°06'0 0.0
2017-Nov-14 04:59N 49°18' W 123°06'0 0.0
2017-Nov-14 04:29N 49°18' W 123°06'0 0.1
2017-Nov-14 03:59N 49°18' W 123°06'0 0.0
2017-Nov-14 03:20N 49°18' W 123°06'0 0.1
2017-Nov-14 02:59N 49°18' W 123°06'0 0.0
2017-Nov-14 02:29N 49°18' W 123°06'0 0.0
2017-Nov-14 01:59N 49°18' W 123°06'0 0.0
2017-Nov-14 01:29N 49°18' W 123°06'0 0.1
2017-Nov-14 00:59N 49°18' W 123°06'0 0.2
2017-Nov-14 00:29N 49°18' W 123°06'0 0.0
2017-Nov-13 23:59N 49°18' W 123°06'0 0.0
2017-Nov-13 23:29N 49°18' W 123°06'0 0.1
2017-Nov-13 22:59N 49°18' W 123°06'0 0.0
2017-Nov-13 22:29N 49°18' W 123°06'0 0.1
2017-Nov-13 21:56N 49°18' W 123°06'164 8.2
2017-Nov-13 01:57N 46°58' W 125°15'713.5
2017-Nov-13 01:25N 46°51' W 125°15'1613.4
2017-Nov-13 00:14N 46°36' W 125°18'314.0
2017-Nov-13 00:00N 46°32' W 125°18'2313.9
2017-Nov-12 22:20N 46°09' W 125°21'60912.9
2017-Nov-10 23:03N 36°10' W 122°55'012.0
2017-Nov-10 23:00N 36°10' W 122°55'3212.3
2017-Nov-10 20:25N 35°43' W 122°34'6012.5
2017-Nov-10 15:38N 34°53' W 121°54'212.8
2017-Nov-10 15:30N 34°52' W 121°53'612.7
2017-Nov-10 15:00N 34°46' W 121°49'612.7
2017-Nov-10 14:30N 34°41' W 121°45'611.9
2017-Nov-10 14:00N 34°37' W 121°40'612.2
2017-Nov-10 13:30N 34°35' W 121°32'612.7
2017-Nov-10 13:00N 34°34' W 121°25'612.8
2017-Nov-10 12:30N 34°32' W 121°18'611.6
2017-Nov-10 12:00N 34°30' W 121°11'612.5
2017-Nov-10 11:30N 34°29' W 121°03'612.3
2017-Nov-10 11:00N 34°27' W 120°56'612.0
2017-Nov-10 10:30N 34°26' W 120°49'611.6
2017-Nov-10 09:59N 34°24' W 120°42'612.3
2017-Nov-10 09:30N 34°22' W 120°35'612.2
2017-Nov-10 09:00N 34°21' W 120°28'712.5
2017-Nov-10 08:27N 34°19' W 120°20'613.3
2017-Nov-10 08:00N 34°17' W 120°13'813.1
2017-Nov-10 07:24N 34°15' W 120°04'513.0
2017-Nov-10 07:00N 34°14' W 119°58'713.0
2017-Nov-10 06:29N 34°12' W 119°50'612.9
2017-Nov-10 05:59N 34°10' W 119°43'713.1
2017-Nov-10 05:29N 34°09' W 119°35'613.0
2017-Nov-10 05:00N 34°07' W 119°27'713.0
2017-Nov-10 04:25N 34°05' W 119°19'512.4
2017-Nov-10 04:00N 34°03' W 119°13'613.1
2017-Nov-10 03:30N 33°60' W 119°06'713.4
2017-Nov-10 03:00N 33°57' W 118°59'713.2
2017-Nov-10 02:30N 33°53' W 118°52'612.8
2017-Nov-10 02:00N 33°50' W 118°45'510.3
2017-Nov-10 01:30N 33°48' W 118°40'5 7.7
2017-Nov-10 00:53N 33°45' W 118°35'  

Dump ship's entire track history